sensor_id;sensor_type;location;lat;lon;timestamp;pressure;altitude;pressure_sealevel;temperature;humidity
42519;BME280;28147;47.520;18.920;2023-07-20T00:02:14;97811.44;;;27.16;48.79
42519;BME280;28147;47.520;18.920;2023-07-20T00:04:39;97813.78;;;27.33;48.81
42519;BME280;28147;47.520;18.920;2023-07-20T00:07:05;97813.56;;;27.07;49.12
42519;BME280;28147;47.520;18.920;2023-07-20T00:09:30;97813.19;;;27.08;49.38
42519;BME280;28147;47.520;18.920;2023-07-20T00:11:56;97801.84;;;27.22;48.64
42519;BME280;28147;47.520;18.920;2023-07-20T00:14:22;97802.16;;;26.85;49.48
42519;BME280;28147;47.520;18.920;2023-07-20T00:16:49;97801.53;;;26.92;48.97
42519;BME280;28147;47.520;18.920;2023-07-20T00:19:26;97795.44;;;26.99;49.31
42519;BME280;28147;47.520;18.920;2023-07-20T00:21:52;97788.75;;;27.31;47.95
42519;BME280;28147;47.520;18.920;2023-07-20T00:24:18;97792.63;;;26.95;48.78
42519;BME280;28147;47.520;18.920;2023-07-20T00:26:44;97792.53;;;26.91;49.02
42519;BME280;28147;47.520;18.920;2023-07-20T00:29:10;97795.38;;;26.95;48.74
42519;BME280;28147;47.520;18.920;2023-07-20T00:31:35;97809.22;;;26.86;48.96
42519;BME280;28147;47.520;18.920;2023-07-20T00:34:03;97803.22;;;26.81;49.25
42519;BME280;28147;47.520;18.920;2023-07-20T00:36:28;97812.28;;;26.85;49.20
42519;BME280;28147;47.520;18.920;2023-07-20T00:38:53;97813.69;;;26.95;48.88
42519;BME280;28147;47.520;18.920;2023-07-20T00:41:19;97814.66;;;26.23;50.63
42519;BME280;28147;47.520;18.920;2023-07-20T00:43:44;97807.72;;;26.73;49.37
42519;BME280;28147;47.520;18.920;2023-07-20T00:46:10;97788.88;;;26.84;48.66
42519;BME280;28147;47.520;18.920;2023-07-20T00:48:36;97788.34;;;26.78;49.21
42519;BME280;28147;47.520;18.920;2023-07-20T00:51:02;97788.50;;;26.85;48.89
42519;BME280;28147;47.520;18.920;2023-07-20T00:53:28;97792.66;;;26.79;49.25
42519;BME280;28147;47.520;18.920;2023-07-20T00:55:53;97791.72;;;26.56;49.87
42519;BME280;28147;47.520;18.920;2023-07-20T00:58:19;97786.28;;;26.56;49.64
42519;BME280;28147;47.520;18.920;2023-07-20T01:00:45;97771.84;;;26.90;48.97
42519;BME280;28147;47.520;18.920;2023-07-20T01:03:12;97775.50;;;26.63;49.96
42519;BME280;28147;47.520;18.920;2023-07-20T01:08:32;97774.97;;;26.73;50.05
42519;BME280;28147;47.520;18.920;2023-07-20T01:11:11;97774.19;;;26.41;50.55
42519;BME280;28147;47.520;18.920;2023-07-20T01:13:38;97770.50;;;26.49;50.20
42519;BME280;28147;47.520;18.920;2023-07-20T01:16:04;97765.34;;;26.79;49.33
42519;BME280;28147;47.520;18.920;2023-07-20T01:18:30;97764.69;;;27.02;48.67
42519;BME280;28147;47.520;18.920;2023-07-20T01:20:59;97763.78;;;26.62;50.16
42519;BME280;28147;47.520;18.920;2023-07-20T01:26:07;97775.28;;;26.52;51.18
42519;BME280;28147;47.520;18.920;2023-07-20T01:31:33;97757.28;;;26.51;51.18
42519;BME280;28147;47.520;18.920;2023-07-20T01:34:01;97761.66;;;26.72;50.50
42519;BME280;28147;47.520;18.920;2023-07-20T01:36:33;97768.28;;;26.55;50.97
42519;BME280;28147;47.520;18.920;2023-07-20T01:38:59;97766.19;;;26.48;51.02
42519;BME280;28147;47.520;18.920;2023-07-20T01:41:25;97772.50;;;26.68;49.41
42519;BME280;28147;47.520;18.920;2023-07-20T01:43:51;97764.66;;;26.66;49.49
42519;BME280;28147;47.520;18.920;2023-07-20T01:46:16;97766.25;;;26.67;49.39
42519;BME280;28147;47.520;18.920;2023-07-20T01:48:41;97784.75;;;26.58;50.19
42519;BME280;28147;47.520;18.920;2023-07-20T01:51:07;97783.47;;;26.52;50.15
42519;BME280;28147;47.520;18.920;2023-07-20T01:53:33;97777.19;;;26.52;50.87
42519;BME280;28147;47.520;18.920;2023-07-20T01:55:58;97784.06;;;26.46;50.90
42519;BME280;28147;47.520;18.920;2023-07-20T01:58:23;97795.94;;;26.22;51.35
42519;BME280;28147;47.520;18.920;2023-07-20T02:00:49;97778.91;;;26.12;51.23
42519;BME280;28147;47.520;18.920;2023-07-20T02:03:15;97795.28;;;26.28;51.19
42519;BME280;28147;47.520;18.920;2023-07-20T02:05:44;97799.19;;;26.75;49.62
42519;BME280;28147;47.520;18.920;2023-07-20T02:08:09;97804.47;;;26.52;50.04
42519;BME280;28147;47.520;18.920;2023-07-20T02:10:35;97803.34;;;26.37;50.81
42519;BME280;28147;47.520;18.920;2023-07-20T02:13:00;97802.66;;;26.56;50.16
42519;BME280;28147;47.520;18.920;2023-07-20T02:15:26;97807.16;;;26.48;50.90
42519;BME280;28147;47.520;18.920;2023-07-20T02:17:52;97812.22;;;26.65;49.77
42519;BME280;28147;47.520;18.920;2023-07-20T02:20:18;97808.88;;;26.40;50.74
42519;BME280;28147;47.520;18.920;2023-07-20T02:22:44;97810.19;;;26.31;51.27
42519;BME280;28147;47.520;18.920;2023-07-20T02:25:09;97815.38;;;26.20;51.42
42519;BME280;28147;47.520;18.920;2023-07-20T02:27:36;97813.59;;;26.12;50.97
42519;BME280;28147;47.520;18.920;2023-07-20T02:30:02;97809.44;;;26.02;51.97
42519;BME280;28147;47.520;18.920;2023-07-20T02:32:28;97816.63;;;26.38;51.07
42519;BME280;28147;47.520;18.920;2023-07-20T02:34:53;97811.84;;;26.35;51.63
42519;BME280;28147;47.520;18.920;2023-07-20T02:37:19;97807.63;;;26.22;51.53
42519;BME280;28147;47.520;18.920;2023-07-20T02:39:44;97813.69;;;26.15;51.75
42519;BME280;28147;47.520;18.920;2023-07-20T02:42:10;97813.63;;;26.43;50.61
42519;BME280;28147;47.520;18.920;2023-07-20T02:44:35;97810.59;;;26.01;52.17
42519;BME280;28147;47.520;18.920;2023-07-20T02:47:01;97805.69;;;25.79;52.98
42519;BME280;28147;47.520;18.920;2023-07-20T02:49:27;97814.28;;;26.09;52.21
42519;BME280;28147;47.520;18.920;2023-07-20T02:51:52;97821.06;;;25.99;52.41
42519;BME280;28147;47.520;18.920;2023-07-20T02:54:18;97818.16;;;25.92;52.53
42519;BME280;28147;47.520;18.920;2023-07-20T02:56:43;97820.44;;;26.06;52.49
42519;BME280;28147;47.520;18.920;2023-07-20T02:59:08;97825.59;;;26.23;51.57
42519;BME280;28147;47.520;18.920;2023-07-20T03:01:34;97825.00;;;26.02;52.23
42519;BME280;28147;47.520;18.920;2023-07-20T03:04:01;97834.53;;;26.08;51.58
42519;BME280;28147;47.520;18.920;2023-07-20T03:06:27;97829.78;;;26.20;51.48
42519;BME280;28147;47.520;18.920;2023-07-20T03:08:52;97833.56;;;26.60;49.64
42519;BME280;28147;47.520;18.920;2023-07-20T03:11:19;97835.47;;;26.59;50.09
42519;BME280;28147;47.520;18.920;2023-07-20T03:13:46;97825.19;;;26.53;49.67
42519;BME280;28147;47.520;18.920;2023-07-20T03:16:13;97835.06;;;26.57;49.50
42519;BME280;28147;47.520;18.920;2023-07-20T03:18:41;97837.78;;;26.13;50.12
42519;BME280;28147;47.520;18.920;2023-07-20T03:21:08;97836.47;;;26.07;49.34
42519;BME280;28147;47.520;18.920;2023-07-20T03:23:33;97830.25;;;26.23;47.56
42519;BME280;28147;47.520;18.920;2023-07-20T03:25:59;97838.06;;;26.24;48.26
42519;BME280;28147;47.520;18.920;2023-07-20T03:28:25;97848.66;;;26.41;48.40
42519;BME280;28147;47.520;18.920;2023-07-20T03:30:57;97847.91;;;26.57;47.56
42519;BME280;28147;47.520;18.920;2023-07-20T03:33:26;97848.25;;;26.55;46.91
42519;BME280;28147;47.520;18.920;2023-07-20T03:35:51;97842.91;;;26.75;46.52
42519;BME280;28147;47.520;18.920;2023-07-20T03:38:17;97849.22;;;26.63;45.79
42519;BME280;28147;47.520;18.920;2023-07-20T03:40:56;97850.81;;;26.64;45.67
42519;BME280;28147;47.520;18.920;2023-07-20T03:43:22;97851.41;;;26.73;45.12
42519;BME280;28147;47.520;18.920;2023-07-20T03:45:48;97853.97;;;26.82;45.06
42519;BME280;28147;47.520;18.920;2023-07-20T03:48:22;97854.78;;;26.82;45.34
42519;BME280;28147;47.520;18.920;2023-07-20T03:50:49;97852.31;;;26.77;45.36
42519;BME280;28147;47.520;18.920;2023-07-20T03:53:16;97855.53;;;26.99;45.20
42519;BME280;28147;47.520;18.920;2023-07-20T03:55:44;97860.38;;;27.05;44.83
42519;BME280;28147;47.520;18.920;2023-07-20T03:58:09;97865.16;;;26.92;45.91
42519;BME280;28147;47.520;18.920;2023-07-20T04:00:35;97863.75;;;26.83;46.46
42519;BME280;28147;47.520;18.920;2023-07-20T04:03:01;97859.25;;;26.90;46.21
42519;BME280;28147;47.520;18.920;2023-07-20T04:05:26;97868.84;;;27.00;45.90
42519;BME280;28147;47.520;18.920;2023-07-20T04:07:52;97870.00;;;26.99;45.79
42519;BME280;28147;47.520;18.920;2023-07-20T04:10:18;97865.34;;;26.84;46.16
42519;BME280;28147;47.520;18.920;2023-07-20T04:12:44;97862.66;;;27.03;45.56
42519;BME280;28147;47.520;18.920;2023-07-20T04:15:10;97866.47;;;27.14;45.54
42519;BME280;28147;47.520;18.920;2023-07-20T04:17:35;97851.91;;;27.46;44.65
42519;BME280;28147;47.520;18.920;2023-07-20T04:20:01;97846.03;;;27.44;44.86
42519;BME280;28147;47.520;18.920;2023-07-20T04:22:26;97838.34;;;27.14;45.65
42519;BME280;28147;47.520;18.920;2023-07-20T04:24:52;97840.38;;;27.17;45.10
42519;BME280;28147;47.520;18.920;2023-07-20T04:27:17;97845.56;;;27.22;45.14
42519;BME280;28147;47.520;18.920;2023-07-20T04:29:43;97845.88;;;27.36;44.69
42519;BME280;28147;47.520;18.920;2023-07-20T04:32:08;97841.22;;;27.56;44.40
42519;BME280;28147;47.520;18.920;2023-07-20T04:34:34;97842.31;;;27.16;43.95
42519;BME280;28147;47.520;18.920;2023-07-20T04:37:03;97840.06;;;27.57;43.87
42519;BME280;28147;47.520;18.920;2023-07-20T04:39:28;97835.25;;;27.70;43.11
42519;BME280;28147;47.520;18.920;2023-07-20T04:41:54;97835.25;;;27.70;42.52
42519;BME280;28147;47.520;18.920;2023-07-20T04:44:19;97843.16;;;27.95;42.51
42519;BME280;28147;47.520;18.920;2023-07-20T04:46:44;97842.09;;;28.22;42.34
42519;BME280;28147;47.520;18.920;2023-07-20T04:49:10;97830.03;;;28.23;41.70
42519;BME280;28147;47.520;18.920;2023-07-20T04:51:38;97839.72;;;28.40;41.30
42519;BME280;28147;47.520;18.920;2023-07-20T04:54:03;97852.38;;;28.48;41.14
42519;BME280;28147;47.520;18.920;2023-07-20T04:56:29;97858.94;;;28.67;40.42
42519;BME280;28147;47.520;18.920;2023-07-20T04:58:54;97854.31;;;28.71;40.74
42519;BME280;28147;47.520;18.920;2023-07-20T05:01:20;97846.44;;;28.23;41.65
42519;BME280;28147;47.520;18.920;2023-07-20T05:03:45;97851.00;;;28.58;41.09
42519;BME280;28147;47.520;18.920;2023-07-20T05:06:10;97853.59;;;28.74;40.91
42519;BME280;28147;47.520;18.920;2023-07-20T05:08:36;97845.38;;;28.74;40.81
42519;BME280;28147;47.520;18.920;2023-07-20T05:11:01;97849.00;;;28.81;40.80
42519;BME280;28147;47.520;18.920;2023-07-20T05:13:27;97853.69;;;28.35;41.28
42519;BME280;28147;47.520;18.920;2023-07-20T05:15:53;97858.88;;;28.63;41.41
42519;BME280;28147;47.520;18.920;2023-07-20T05:18:19;97854.91;;;28.57;41.43
42519;BME280;28147;47.520;18.920;2023-07-20T05:20:49;97857.75;;;28.64;40.99
42519;BME280;28147;47.520;18.920;2023-07-20T05:23:17;97859.13;;;29.00;40.91
42519;BME280;28147;47.520;18.920;2023-07-20T05:25:43;97861.19;;;29.07;40.64
42519;BME280;28147;47.520;18.920;2023-07-20T05:28:08;97857.72;;;28.87;40.38
42519;BME280;28147;47.520;18.920;2023-07-20T05:30:34;97857.66;;;28.83;40.28
42519;BME280;28147;47.520;18.920;2023-07-20T05:32:59;97857.81;;;29.17;39.42
42519;BME280;28147;47.520;18.920;2023-07-20T05:35:26;97864.75;;;29.38;39.13
42519;BME280;28147;47.520;18.920;2023-07-20T05:37:51;97865.56;;;29.12;39.37
42519;BME280;28147;47.520;18.920;2023-07-20T05:40:17;97863.69;;;29.46;38.51
42519;BME280;28147;47.520;18.920;2023-07-20T05:42:46;97866.38;;;29.42;38.90
42519;BME280;28147;47.520;18.920;2023-07-20T05:45:13;97866.31;;;29.39;38.21
42519;BME280;28147;47.520;18.920;2023-07-20T05:47:39;97871.00;;;28.39;39.32
42519;BME280;28147;47.520;18.920;2023-07-20T05:50:05;97867.22;;;29.20;37.79
42519;BME280;28147;47.520;18.920;2023-07-20T05:52:32;97870.25;;;29.38;37.67
42519;BME280;28147;47.520;18.920;2023-07-20T05:54:57;97862.00;;;29.38;36.60
42519;BME280;28147;47.520;18.920;2023-07-20T05:57:23;97864.84;;;29.45;37.98
42519;BME280;28147;47.520;18.920;2023-07-20T05:59:48;97857.28;;;29.08;37.62
42519;BME280;28147;47.520;18.920;2023-07-20T06:02:14;97862.03;;;30.01;35.80
42519;BME280;28147;47.520;18.920;2023-07-20T06:04:39;97852.84;;;29.87;35.28
42519;BME280;28147;47.520;18.920;2023-07-20T06:07:05;97866.06;;;29.77;36.04
42519;BME280;28147;47.520;18.920;2023-07-20T06:09:32;97869.41;;;29.94;35.34
42519;BME280;28147;47.520;18.920;2023-07-20T06:11:58;97870.75;;;30.44;34.93
42519;BME280;28147;47.520;18.920;2023-07-20T06:14:24;97878.72;;;30.60;35.22
42519;BME280;28147;47.520;18.920;2023-07-20T06:16:50;97867.06;;;30.29;35.55
42519;BME280;28147;47.520;18.920;2023-07-20T06:19:30;97889.50;;;30.01;35.67
42519;BME280;28147;47.520;18.920;2023-07-20T06:21:56;97880.72;;;30.22;36.26
42519;BME280;28147;47.520;18.920;2023-07-20T06:24:21;97886.56;;;29.87;35.96
42519;BME280;28147;47.520;18.920;2023-07-20T06:26:46;97892.25;;;30.35;36.24
42519;BME280;28147;47.520;18.920;2023-07-20T06:29:12;97889.63;;;30.46;35.63
42519;BME280;28147;47.520;18.920;2023-07-20T06:31:37;97886.41;;;30.40;35.23
42519;BME280;28147;47.520;18.920;2023-07-20T06:34:03;97889.78;;;30.67;35.54
42519;BME280;28147;47.520;18.920;2023-07-20T06:36:29;97897.25;;;30.67;35.41
42519;BME280;28147;47.520;18.920;2023-07-20T06:38:55;97897.16;;;31.00;34.58
42519;BME280;28147;47.520;18.920;2023-07-20T06:41:21;97906.91;;;31.42;34.57
42519;BME280;28147;47.520;18.920;2023-07-20T06:43:47;97913.66;;;31.00;34.93
42519;BME280;28147;47.520;18.920;2023-07-20T06:46:12;97924.00;;;30.73;35.23
42519;BME280;28147;47.520;18.920;2023-07-20T06:48:37;97914.06;;;31.02;34.53
42519;BME280;28147;47.520;18.920;2023-07-20T06:51:03;97916.72;;;30.88;33.92
42519;BME280;28147;47.520;18.920;2023-07-20T06:53:29;97910.44;;;30.88;34.92
42519;BME280;28147;47.520;18.920;2023-07-20T06:55:54;97921.66;;;31.20;35.95
42519;BME280;28147;47.520;18.920;2023-07-20T06:58:23;97924.53;;;31.34;34.62
42519;BME280;28147;47.520;18.920;2023-07-20T07:00:48;97928.53;;;31.44;34.05
42519;BME280;28147;47.520;18.920;2023-07-20T07:03:14;97941.69;;;31.76;34.59
42519;BME280;28147;47.520;18.920;2023-07-20T07:05:39;97951.03;;;31.09;33.67
42519;BME280;28147;47.520;18.920;2023-07-20T07:08:05;97944.47;;;30.39;34.40
42519;BME280;28147;47.520;18.920;2023-07-20T07:10:30;97945.09;;;30.62;33.41
42519;BME280;28147;47.520;18.920;2023-07-20T07:12:57;97937.53;;;31.37;34.05
42519;BME280;28147;47.520;18.920;2023-07-20T07:15:22;97956.72;;;30.86;34.00
42519;BME280;28147;47.520;18.920;2023-07-20T07:17:48;97943.81;;;31.34;34.06
42519;BME280;28147;47.520;18.920;2023-07-20T07:20:13;97950.81;;;30.80;34.05
42519;BME280;28147;47.520;18.920;2023-07-20T07:22:38;97951.41;;;31.04;33.48
42519;BME280;28147;47.520;18.920;2023-07-20T07:25:04;97950.94;;;31.46;33.08
42519;BME280;28147;47.520;18.920;2023-07-20T07:27:30;97956.25;;;31.80;32.34
42519;BME280;28147;47.520;18.920;2023-07-20T07:29:55;97962.06;;;31.64;32.38
42519;BME280;28147;47.520;18.920;2023-07-20T07:32:21;97956.00;;;32.03;32.92
42519;BME280;28147;47.520;18.920;2023-07-20T07:34:46;97966.75;;;32.36;32.47
42519;BME280;28147;47.520;18.920;2023-07-20T07:37:15;97963.59;;;32.38;31.62
42519;BME280;28147;47.520;18.920;2023-07-20T07:39:42;97969.50;;;32.33;31.23
42519;BME280;28147;47.520;18.920;2023-07-20T07:42:07;97971.47;;;32.29;30.53
42519;BME280;28147;47.520;18.920;2023-07-20T07:44:33;97960.19;;;31.82;31.52
42519;BME280;28147;47.520;18.920;2023-07-20T07:46:58;97966.38;;;31.61;31.95
42519;BME280;28147;47.520;18.920;2023-07-20T07:49:23;97968.44;;;32.59;30.94
42519;BME280;28147;47.520;18.920;2023-07-20T07:51:49;97968.72;;;32.29;31.62
42519;BME280;28147;47.520;18.920;2023-07-20T07:54:16;97976.78;;;33.12;30.29
42519;BME280;28147;47.520;18.920;2023-07-20T07:56:42;97954.31;;;33.00;30.10
42519;BME280;28147;47.520;18.920;2023-07-20T07:59:08;97960.19;;;32.80;29.37
42519;BME280;28147;47.520;18.920;2023-07-20T08:01:33;97956.69;;;33.08;30.25
42519;BME280;28147;47.520;18.920;2023-07-20T08:03:58;97967.72;;;33.12;30.08
42519;BME280;28147;47.520;18.920;2023-07-20T08:06:24;97975.59;;;32.99;30.93
42519;BME280;28147;47.520;18.920;2023-07-20T08:08:50;97973.22;;;33.30;30.70
42519;BME280;28147;47.520;18.920;2023-07-20T08:11:15;97970.88;;;33.25;29.92
42519;BME280;28147;47.520;18.920;2023-07-20T08:13:41;97975.09;;;32.47;30.95
42519;BME280;28147;47.520;18.920;2023-07-20T08:16:07;97977.56;;;31.31;31.97
42519;BME280;28147;47.520;18.920;2023-07-20T08:18:32;97969.50;;;31.08;32.82
42519;BME280;28147;47.520;18.920;2023-07-20T08:20:57;97965.34;;;30.81;32.49
42519;BME280;28147;47.520;18.920;2023-07-20T08:23:23;97960.84;;;32.34;31.59
42519;BME280;28147;47.520;18.920;2023-07-20T08:25:48;97950.53;;;31.44;30.52
42519;BME280;28147;47.520;18.920;2023-07-20T08:28:15;97956.53;;;31.57;31.55
42519;BME280;28147;47.520;18.920;2023-07-20T08:30:42;97958.16;;;32.45;32.79
42519;BME280;28147;47.520;18.920;2023-07-20T08:33:09;97954.69;;;33.37;31.77
42519;BME280;28147;47.520;18.920;2023-07-20T08:35:35;97954.31;;;33.53;29.13
42519;BME280;28147;47.520;18.920;2023-07-20T08:38:01;97960.56;;;33.72;29.01
42519;BME280;28147;47.520;18.920;2023-07-20T08:40:26;97963.34;;;32.93;29.80
42519;BME280;28147;47.520;18.920;2023-07-20T08:42:54;97967.28;;;32.92;30.17
42519;BME280;28147;47.520;18.920;2023-07-20T08:45:22;97972.13;;;32.04;31.21
42519;BME280;28147;47.520;18.920;2023-07-20T08:47:48;97969.34;;;31.35;31.63
42519;BME280;28147;47.520;18.920;2023-07-20T08:50:16;97973.75;;;30.65;31.45
42519;BME280;28147;47.520;18.920;2023-07-20T08:52:41;97976.09;;;31.48;30.21
42519;BME280;28147;47.520;18.920;2023-07-20T08:55:07;97975.88;;;31.19;30.54
42519;BME280;28147;47.520;18.920;2023-07-20T08:57:33;97967.59;;;31.64;29.90
42519;BME280;28147;47.520;18.920;2023-07-20T09:00:02;97973.16;;;31.82;30.13
42519;BME280;28147;47.520;18.920;2023-07-20T09:02:30;97980.59;;;32.58;29.25
42519;BME280;28147;47.520;18.920;2023-07-20T09:05:00;97977.66;;;32.08;29.54
42519;BME280;28147;47.520;18.920;2023-07-20T09:07:26;97983.25;;;32.29;29.28
42519;BME280;28147;47.520;18.920;2023-07-20T09:09:51;97972.38;;;32.79;28.51
42519;BME280;28147;47.520;18.920;2023-07-20T09:12:17;97986.19;;;32.83;28.39
42519;BME280;28147;47.520;18.920;2023-07-20T09:14:43;97985.84;;;33.02;28.28
42519;BME280;28147;47.520;18.920;2023-07-20T09:17:13;97991.78;;;33.11;27.80
42519;BME280;28147;47.520;18.920;2023-07-20T09:19:45;97989.38;;;32.99;28.85
42519;BME280;28147;47.520;18.920;2023-07-20T09:22:11;97975.78;;;32.30;29.43
42519;BME280;28147;47.520;18.920;2023-07-20T09:24:36;97977.97;;;31.92;30.03
42519;BME280;28147;47.520;18.920;2023-07-20T09:27:02;97982.72;;;30.92;31.49
42519;BME280;28147;47.520;18.920;2023-07-20T09:29:30;97989.84;;;32.03;30.91
42519;BME280;28147;47.520;18.920;2023-07-20T09:32:00;97985.84;;;33.09;29.88
42519;BME280;28147;47.520;18.920;2023-07-20T09:34:26;97976.28;;;33.96;27.83
42519;BME280;28147;47.520;18.920;2023-07-20T09:36:52;97979.34;;;34.30;28.09
42519;BME280;28147;47.520;18.920;2023-07-20T09:39:17;97970.09;;;33.13;28.96
42519;BME280;28147;47.520;18.920;2023-07-20T09:41:43;97989.00;;;33.01;29.71
42519;BME280;28147;47.520;18.920;2023-07-20T09:44:10;97985.34;;;34.14;28.13
42519;BME280;28147;47.520;18.920;2023-07-20T09:46:54;97992.34;;;32.33;30.51
42519;BME280;28147;47.520;18.920;2023-07-20T09:49:19;97989.88;;;32.10;30.85
42519;BME280;28147;47.520;18.920;2023-07-20T09:51:45;97997.44;;;31.62;31.12
42519;BME280;28147;47.520;18.920;2023-07-20T09:54:13;97996.16;;;32.07;30.36
42519;BME280;28147;47.520;18.920;2023-07-20T09:56:39;98007.75;;;31.76;31.05
42519;BME280;28147;47.520;18.920;2023-07-20T09:59:05;98010.91;;;31.26;31.31
42519;BME280;28147;47.520;18.920;2023-07-20T10:01:32;98016.00;;;31.24;31.95
42519;BME280;28147;47.520;18.920;2023-07-20T10:04:02;98010.84;;;31.70;31.09
42519;BME280;28147;47.520;18.920;2023-07-20T10:06:29;98011.50;;;32.08;30.96
42519;BME280;28147;47.520;18.920;2023-07-20T10:09:01;98015.50;;;31.59;30.84
42519;BME280;28147;47.520;18.920;2023-07-20T10:11:30;98017.91;;;31.64;31.54
42519;BME280;28147;47.520;18.920;2023-07-20T10:13:58;98021.69;;;31.45;32.33
42519;BME280;28147;47.520;18.920;2023-07-20T10:16:28;98028.84;;;31.54;31.68
42519;BME280;28147;47.520;18.920;2023-07-20T10:19:26;98022.47;;;31.97;31.35
42519;BME280;28147;47.520;18.920;2023-07-20T10:22:07;98020.00;;;32.58;31.71
42519;BME280;28147;47.520;18.920;2023-07-20T10:24:36;98021.41;;;32.23;32.71
42519;BME280;28147;47.520;18.920;2023-07-20T10:27:02;98016.19;;;32.04;32.33
42519;BME280;28147;47.520;18.920;2023-07-20T10:29:28;98015.44;;;32.11;30.97
42519;BME280;28147;47.520;18.920;2023-07-20T10:31:55;98016.75;;;32.38;31.44
42519;BME280;28147;47.520;18.920;2023-07-20T10:34:23;98021.28;;;31.95;32.27
42519;BME280;28147;47.520;18.920;2023-07-20T10:36:49;98025.81;;;31.73;31.70
42519;BME280;28147;47.520;18.920;2023-07-20T10:39:24;98015.66;;;31.84;30.93
42519;BME280;28147;47.520;18.920;2023-07-20T10:41:50;98024.00;;;31.40;30.74
42519;BME280;28147;47.520;18.920;2023-07-20T10:44:19;98021.59;;;31.31;31.88
42519;BME280;28147;47.520;18.920;2023-07-20T10:46:45;98031.75;;;32.41;29.89
42519;BME280;28147;47.520;18.920;2023-07-20T10:49:12;98019.28;;;32.83;28.90
42519;BME280;28147;47.520;18.920;2023-07-20T10:51:43;98020.94;;;33.77;27.73
42519;BME280;28147;47.520;18.920;2023-07-20T10:54:33;98011.06;;;33.26;28.35
42519;BME280;28147;47.520;18.920;2023-07-20T10:57:24;98031.78;;;32.44;29.09
42519;BME280;28147;47.520;18.920;2023-07-20T10:59:49;98019.19;;;31.81;30.06
42519;BME280;28147;47.520;18.920;2023-07-20T11:02:18;98025.91;;;31.84;29.32
42519;BME280;28147;47.520;18.920;2023-07-20T11:04:45;98026.41;;;32.00;30.57
42519;BME280;28147;47.520;18.920;2023-07-20T11:07:15;98022.44;;;32.81;29.46
42519;BME280;28147;47.520;18.920;2023-07-20T11:09:41;98018.97;;;33.70;27.35
42519;BME280;28147;47.520;18.920;2023-07-20T11:12:15;98024.09;;;33.43;26.42
42519;BME280;28147;47.520;18.920;2023-07-20T11:14:43;98014.16;;;32.78;27.74
42519;BME280;28147;47.520;18.920;2023-07-20T11:17:13;98016.56;;;34.01;26.94
42519;BME280;28147;47.520;18.920;2023-07-20T11:19:39;98018.06;;;34.23;27.54
42519;BME280;28147;47.520;18.920;2023-07-20T11:22:06;98021.28;;;34.07;28.18
42519;BME280;28147;47.520;18.920;2023-07-20T11:24:38;98007.03;;;34.12;26.49
42519;BME280;28147;47.520;18.920;2023-07-20T11:27:04;98010.47;;;34.52;26.93
42519;BME280;28147;47.520;18.920;2023-07-20T11:29:30;98016.88;;;34.17;26.58
42519;BME280;28147;47.520;18.920;2023-07-20T11:31:56;98024.03;;;34.04;26.64
42519;BME280;28147;47.520;18.920;2023-07-20T11:34:22;98020.53;;;33.75;26.70
42519;BME280;28147;47.520;18.920;2023-07-20T11:36:49;98012.63;;;33.80;26.14
42519;BME280;28147;47.520;18.920;2023-07-20T11:39:16;98020.03;;;34.26;26.83
42519;BME280;28147;47.520;18.920;2023-07-20T11:41:52;98017.38;;;33.26;26.39
42519;BME280;28147;47.520;18.920;2023-07-20T11:44:19;98015.00;;;33.75;26.04
42519;BME280;28147;47.520;18.920;2023-07-20T11:46:46;98021.34;;;33.64;26.22
42519;BME280;28147;47.520;18.920;2023-07-20T11:49:12;98019.72;;;33.88;26.12
42519;BME280;28147;47.520;18.920;2023-07-20T11:51:39;98014.16;;;34.13;26.29
42519;BME280;28147;47.520;18.920;2023-07-20T11:54:06;98014.63;;;33.37;25.62
42519;BME280;28147;47.520;18.920;2023-07-20T11:56:32;98011.06;;;33.40;26.14
42519;BME280;28147;47.520;18.920;2023-07-20T11:58:58;97999.97;;;34.01;26.24
42519;BME280;28147;47.520;18.920;2023-07-20T12:01:30;98017.72;;;34.14;26.54
42519;BME280;28147;47.520;18.920;2023-07-20T12:03:59;98011.41;;;34.13;26.42
42519;BME280;28147;47.520;18.920;2023-07-20T12:06:27;98009.75;;;34.27;25.53
42519;BME280;28147;47.520;18.920;2023-07-20T12:08:57;98008.69;;;33.13;27.97
42519;BME280;28147;47.520;18.920;2023-07-20T12:11:38;98010.94;;;32.61;28.25
42519;BME280;28147;47.520;18.920;2023-07-20T12:14:06;98011.47;;;33.24;27.04
42519;BME280;28147;47.520;18.920;2023-07-20T12:16:32;98000.06;;;33.47;27.03
42519;BME280;28147;47.520;18.920;2023-07-20T12:19:04;98001.19;;;33.82;26.94
42519;BME280;28147;47.520;18.920;2023-07-20T12:21:30;98008.34;;;33.58;27.34
42519;BME280;28147;47.520;18.920;2023-07-20T12:23:57;97992.53;;;33.73;27.31
42519;BME280;28147;47.520;18.920;2023-07-20T12:26:23;97993.34;;;33.55;27.35
42519;BME280;28147;47.520;18.920;2023-07-20T12:28:50;97983.81;;;34.03;27.64
42519;BME280;28147;47.520;18.920;2023-07-20T12:31:16;97994.91;;;33.60;25.67
42519;BME280;28147;47.520;18.920;2023-07-20T12:33:41;97998.47;;;33.60;25.80
42519;BME280;28147;47.520;18.920;2023-07-20T12:36:08;98005.16;;;33.77;25.17
42519;BME280;28147;47.520;18.920;2023-07-20T12:38:33;98002.38;;;33.77;26.06
42519;BME280;28147;47.520;18.920;2023-07-20T12:41:02;97991.75;;;33.76;26.00
42519;BME280;28147;47.520;18.920;2023-07-20T12:43:28;97998.44;;;33.17;25.80
42519;BME280;28147;47.520;18.920;2023-07-20T12:45:55;98001.63;;;33.34;25.33
42519;BME280;28147;47.520;18.920;2023-07-20T12:48:21;97997.13;;;32.40;26.38
42519;BME280;28147;47.520;18.920;2023-07-20T12:50:49;97992.13;;;33.03;25.95
42519;BME280;28147;47.520;18.920;2023-07-20T12:53:15;97987.00;;;33.33;26.25
42519;BME280;28147;47.520;18.920;2023-07-20T12:55:40;97984.66;;;33.17;26.13
42519;BME280;28147;47.520;18.920;2023-07-20T12:58:07;97986.25;;;33.11;26.62